Time;durP1;ratioP1;P1;durP2;ratioP2;P2;SDS_P1;SDS_P2;PMS_P1;PMS_P2;Temp;Humidity;BMP_temperature;BMP_pressure;BME280_temperature;BME280_humidity;BME280_pressure;Samples;Min_cycle;Max_cycle;Signal;HPM_P1;HPM_P2
2021/09/14 00:00:17;;;;;;;32.33;20.17;;;;;;;17.64;90.60;99596.09;1711865;83;23309;-71
2021/09/14 00:02:44;;;;;;;25.25;15.43;;;;;;;17.60;90.73;99594.27;1697770;83;21119;-74
2021/09/14 00:05:11;;;;;;;24.75;12.10;;;;;;;17.57;91.04;99586.66;1715898;83;21086;-73
2021/09/14 00:07:39;;;;;;;24.67;15.50;;;;;;;17.54;91.20;99589.44;1724630;83;20979;-75
2021/09/14 00:10:07;;;;;;;30.23;17.32;;;;;;;17.52;91.35;99595.72;1703552;83;21090;-74
2021/09/14 00:12:34;;;;;;;27.22;16.95;;;;;;;17.48;91.39;99587.91;1728744;83;21256;-74
2021/09/14 00:15:03;;;;;;;33.88;17.70;;;;;;;17.46;91.52;99592.81;1728320;83;21682;-74
2021/09/14 00:17:31;;;;;;;16.85;12.13;;;;;;;17.45;91.52;99596.66;1728644;83;20942;-75
2021/09/14 00:19:58;;;;;;;15.38;10.95;;;;;;;17.42;91.52;99596.69;1728333;83;21983;-77
2021/09/14 00:22:24;;;;;;;13.70;9.65;;;;;;;17.39;91.73;99591.86;1717608;83;21058;-73
2021/09/14 00:24:51;;;;;;;19.02;11.95;;;;;;;17.36;92.02;99593.80;1721045;82;21288;-74
2021/09/14 00:27:17;;;;;;;12.80;10.00;;;;;;;17.32;92.23;99590.05;1726244;83;21527;-74
2021/09/14 00:29:44;;;;;;;16.23;10.50;;;;;;;17.29;92.35;99589.30;1726743;83;20916;-73
2021/09/14 00:32:10;;;;;;;13.25;11.78;;;;;;;17.25;92.21;99590.19;1703521;83;21066;-74
2021/09/14 00:34:37;;;;;;;12.10;9.98;;;;;;;17.22;92.11;99584.78;1722808;83;21485;-73
2021/09/14 00:37:05;;;;;;;12.60;9.78;;;;;;;17.22;91.90;99586.69;1733763;82;21018;-73
2021/09/14 00:39:33;;;;;;;12.35;9.63;;;;;;;17.22;91.63;99589.41;1735632;82;21055;-73
2021/09/14 00:42:01;;;;;;;14.35;10.70;;;;;;;17.23;91.51;99590.47;1740834;82;21079;-74
2021/09/14 00:44:28;;;;;;;14.10;10.75;;;;;;;17.24;91.30;99594.00;1721803;82;21050;-72
2021/09/14 00:46:56;;;;;;;12.25;10.32;;;;;;;17.25;91.12;99597.80;1742704;82;21034;-70
2021/09/14 00:49:22;;;;;;;21.33;11.63;;;;;;;17.25;90.87;99601.88;1743591;82;21142;-70
2021/09/14 00:51:50;;;;;;;16.85;11.18;;;;;;;17.24;90.78;99600.25;1743462;82;20967;-71
2021/09/14 00:54:17;;;;;;;16.87;12.35;;;;;;;17.22;90.81;99588.05;1742022;82;21488;-71
2021/09/14 00:56:44;;;;;;;15.28;11.80;;;;;;;17.20;90.96;99590.27;1741642;81;21034;-70
2021/09/14 00:59:11;;;;;;;12.95;9.78;;;;;;;17.18;91.04;99598.70;1741587;82;21066;-70
2021/09/14 01:01:37;;;;;;;14.23;10.63;;;;;;;17.16;91.21;99600.93;1741285;82;21281;-70
2021/09/14 01:04:04;;;;;;;14.55;10.55;;;;;;;17.13;91.30;99605.58;1743702;82;20931;-71
2021/09/14 01:06:32;;;;;;;15.63;9.68;;;;;;;17.09;91.46;99609.98;1743025;82;21098;-71
2021/09/14 01:09:01;;;;;;;11.35;10.23;;;;;;;17.05;91.60;99609.52;1744064;82;21548;-70
2021/09/14 01:11:30;;;;;;;18.00;12.07;;;;;;;16.98;91.94;99606.61;1742572;82;21548;-71
2021/09/14 01:14:07;;;;;;;25.90;16.20;;;;;;;16.93;92.20;99608.04;1691810;83;20994;-69
2021/09/14 01:16:38;;;;;;;19.90;13.48;;;;;;;16.90;92.32;99604.56;1681419;85;20978;-71
2021/09/14 01:19:08;;;;;;;17.10;12.07;;;;;;;16.87;92.52;99605.16;1667416;86;20979;-71
2021/09/14 01:21:36;;;;;;;14.85;11.33;;;;;;;16.85;92.74;99605.17;1684733;85;21030;-69
2021/09/14 01:24:04;;;;;;;13.68;10.68;;;;;;;16.84;92.77;99603.01;1700405;83;21051;-73
2021/09/14 01:26:33;;;;;;;12.55;9.63;;;;;;;16.84;92.86;99609.80;1730267;82;21133;-70
2021/09/14 01:30:10;;;;;;;11.28;9.00;;;;;;;16.85;93.05;99614.14;1716118;82;21001;-72
2021/09/14 01:31:41;;;;;;;10.35;9.10;;;;;;;16.85;93.15;99611.97;1739736;82;21006;-70
2021/09/14 01:34:07;;;;;;;10.98;8.30;;;;;;;16.83;93.21;99608.75;1739452;82;20987;-72
2021/09/14 01:36:36;;;;;;;26.82;16.20;;;;;;;16.81;93.30;99620.45;1707343;84;20959;-73
2021/09/14 01:39:04;;;;;;;38.38;21.97;;;;;;;16.78;93.31;99625.93;1656558;85;21096;-69
2021/09/14 01:41:34;;;;;;;28.38;16.48;;;;;;;16.73;93.37;99626.00;1677357;85;21079;-69
2021/09/14 01:44:03;;;;;;;18.75;13.80;;;;;;;16.68;93.43;99617.10;1705050;84;21035;-68
2021/09/14 01:46:30;;;;;;;12.13;10.40;;;;;;;16.63;93.47;99622.59;1725047;82;21030;-69
2021/09/14 01:48:57;;;;;;;15.32;10.05;;;;;;;16.60;93.59;99621.80;1691806;84;21077;-70
2021/09/14 01:51:24;;;;;;;14.30;9.95;;;;;;;16.58;93.73;99624.83;1702698;84;21193;-71
2021/09/14 01:53:54;;;;;;;11.22;10.03;;;;;;;16.55;93.79;99620.73;1678443;85;20990;-70
2021/09/14 01:56:20;;;;;;;11.43;9.43;;;;;;;16.53;93.79;99620.23;1638381;85;21322;-69
2021/09/14 01:58:47;;;;;;;11.18;9.03;;;;;;;16.51;93.88;99622.42;1706964;84;21026;-69
2021/09/14 02:01:28;;;;;;;10.25;8.90;;;;;;;16.49;93.95;99620.56;1703367;84;20951;-70
2021/09/14 02:34:10;;;;;;;15.20;9.73;;;;;;;16.20;94.07;99629.86;1684122;84;20940;-74
2021/09/14 02:40:05;;;;;;;13.20;10.65;;;;;;;16.13;94.02;99639.14;1724858;83;21112;-68
2021/09/14 02:42:06;;;;;;;17.30;13.65;;;;;;;16.11;93.96;99641.33;1675460;84;21060;-71
2021/09/14 03:00:59;;;;;;;16.70;10.90;;;;;;;15.85;94.71;99652.18;1638759;86;20971;-70
2021/09/14 03:03:25;;;;;;;14.35;10.03;;;;;;;15.84;94.76;99648.39;1725593;83;21500;-69
2021/09/14 03:05:52;;;;;;;13.40;9.08;;;;;;;15.83;94.77;99653.55;1725784;83;20920;-70
2021/09/14 03:08:22;;;;;;;11.28;8.58;;;;;;;15.82;94.86;99654.66;1725478;83;20939;-71
2021/09/14 03:10:49;;;;;;;17.92;10.13;;;;;;;15.82;94.91;99660.09;1726097;83;21194;-71
2021/09/14 03:13:15;;;;;;;11.75;8.58;;;;;;;15.80;94.94;99661.72;1725791;83;20995;-70
2021/09/14 03:15:42;;;;;;;10.38;8.35;;;;;;;15.80;95.00;99658.19;1679700;84;21075;-69
2021/09/14 03:18:08;;;;;;;10.82;8.88;;;;;;;15.79;95.20;99659.28;1639084;87;21047;-70
2021/09/14 03:20:37;;;;;;;12.18;8.98;;;;;;;15.79;95.29;99666.05;1697018;84;21496;-70
2021/09/14 03:23:04;;;;;;;9.28;8.15;;;;;;;15.79;95.33;99665.52;1696814;84;21184;-83
2021/09/14 03:25:32;;;;;;;11.48;9.53;;;;;;;15.78;95.34;99667.17;1701384;83;20977;-69
2021/09/14 03:28:00;;;;;;;14.25;11.78;;;;;;;15.79;95.29;99670.12;1716007;82;21046;-69
2021/09/14 03:30:27;;;;;;;16.93;11.95;;;;;;;15.77;95.30;99673.14;1744030;82;20978;-72
2021/09/14 03:32:56;;;;;;;15.45;11.80;;;;;;;15.76;95.33;99674.23;1743585;82;21010;-69
2021/09/14 03:35:24;;;;;;;22.73;15.30;;;;;;;15.75;95.33;99676.67;1718406;81;21139;-69
2021/09/14 03:37:50;;;;;;;20.17;12.98;;;;;;;15.75;95.30;99678.57;1712665;82;20978;-70
2021/09/14 03:40:17;;;;;;;22.85;14.13;;;;;;;15.73;95.27;99678.06;1744171;82;21006;-72
2021/09/14 03:42:45;;;;;;;25.48;14.65;;;;;;;15.73;95.29;99687.55;1744220;82;21081;-70
2021/09/14 03:45:11;;;;;;;16.65;12.35;;;;;;;15.73;95.31;99687.55;1718731;82;21260;-71
2021/09/14 03:47:37;;;;;;;16.40;12.90;;;;;;;15.73;95.23;99680.77;1742635;82;21125;-71
2021/09/14 03:50:06;;;;;;;14.80;12.28;;;;;;;15.74;95.08;99683.73;1743481;82;21511;-71
2021/09/14 03:52:32;;;;;;;18.17;12.82;;;;;;;15.74;94.96;99685.89;1712038;82;21369;-69
2021/09/14 03:55:00;;;;;;;17.73;11.97;;;;;;;15.74;94.77;99687.80;1712161;83;20971;-70
2021/09/14 03:57:31;;;;;;;15.13;11.03;;;;;;;15.70;94.80;99690.27;1718796;83;21540;-70
2021/09/14 03:59:58;;;;;;;20.48;14.10;;;;;;;15.67;94.73;99683.52;1726659;83;21082;-70
2021/09/14 04:02:34;;;;;;;19.92;15.00;;;;;;;15.62;94.65;99680.85;1726403;83;21504;-71
2021/09/14 04:07:36;;;;;;;21.97;17.98;;;;;;;15.58;94.92;99679.80;1703429;83;21050;-69
2021/09/14 04:09:53;;;;;;;22.27;15.95;;;;;;;15.57;94.98;99687.67;1728790;83;20947;-72
2021/09/14 04:12:19;;;;;;;24.65;14.38;;;;;;;15.60;94.95;99690.34;1726778;83;21246;-70
2021/09/14 04:14:47;;;;;;;14.43;12.23;;;;;;;15.59;94.84;99694.14;1726254;83;22361;-70
2021/09/14 04:17:13;;;;;;;15.75;11.95;;;;;;;15.58;94.84;99698.78;1703713;83;20904;-70
2021/09/14 04:19:40;;;;;;;15.08;11.33;;;;;;;15.57;94.87;99697.70;1726990;83;21035;-70
2021/09/14 04:22:07;;;;;;;17.70;12.03;;;;;;;15.55;94.86;99700.69;1728511;83;20983;-71
2021/09/14 04:24:35;;;;;;;17.50;12.13;;;;;;;15.57;94.88;99710.71;1702494;83;23351;-70
2021/09/14 04:27:05;;;;;;;19.42;13.98;;;;;;;15.58;94.88;99719.11;1728159;82;21058;-74
2021/09/14 04:29:32;;;;;;;17.20;12.05;;;;;;;15.57;94.82;99728.33;1734072;82;21129;-71
2021/09/14 04:31:58;;;;;;;16.23;12.70;;;;;;;15.54;94.87;99722.09;1737438;82;21003;-70
2021/09/14 04:34:26;;;;;;;14.10;11.50;;;;;;;15.52;94.93;99727.01;1737134;82;20995;-69
2021/09/14 04:36:52;;;;;;;14.80;9.48;;;;;;;15.52;95.11;99739.75;1714114;82;21064;-71
2021/09/14 04:39:19;;;;;;;14.68;11.70;;;;;;;15.51;95.24;99732.70;1737279;82;21003;-71
2021/09/14 04:41:47;;;;;;;12.23;10.00;;;;;;;15.51;95.30;99742.19;1737378;82;20994;-70
2021/09/14 04:44:13;;;;;;;13.68;10.80;;;;;;;15.51;95.47;99724.03;1733656;82;21048;-70
2021/09/14 04:46:40;;;;;;;11.00;9.90;;;;;;;15.54;95.57;99738.36;1728714;82;20952;-69
2021/09/14 04:49:06;;;;;;;11.30;9.73;;;;;;;15.57;95.55;99731.59;1708942;83;21149;-72
2021/09/14 04:51:34;;;;;;;12.85;10.23;;;;;;;15.60;95.43;99731.02;1712113;83;21472;-71
2021/09/14 04:54:02;;;;;;;13.60;11.05;;;;;;;15.64;95.42;99729.34;1712069;83;20966;-72
2021/09/14 04:56:29;;;;;;;11.43;9.35;;;;;;;15.66;95.20;99743.45;1690221;83;22227;-70
2021/09/14 04:58:56;;;;;;;10.93;8.70;;;;;;;15.68;95.12;99742.06;1737245;82;21051;-69
2021/09/14 05:01:22;;;;;;;18.37;11.73;;;;;;;15.69;95.02;99736.09;1737272;82;21168;-70
2021/09/14 05:03:50;;;;;;;14.50;11.73;;;;;;;15.71;94.95;99742.06;1737211;82;20948;-71
2021/09/14 05:06:17;;;;;;;16.97;12.13;;;;;;;15.75;94.99;99743.11;1730243;82;20897;-71
2021/09/14 05:08:44;;;;;;;16.05;13.30;;;;;;;15.75;94.91;99743.11;1736064;82;20947;-70
2021/09/14 05:11:13;;;;;;;19.25;13.13;;;;;;;15.76;94.86;99748.80;1732150;82;20995;-71
2021/09/14 05:13:41;;;;;;;15.55;11.75;;;;;;;15.78;94.77;99748.53;1713250;82;21117;-70
2021/09/14 05:16:08;;;;;;;16.67;11.05;;;;;;;15.81;94.92;99750.67;1716031;82;21535;-70
2021/09/14 05:18:45;;;;;;;14.23;12.00;;;;;;;15.86;94.88;99757.41;1737578;82;20975;-70
2021/09/14 05:21:10;;;;;;;13.72;10.78;;;;;;;15.90;94.82;99749.78;1737190;82;21669;-71
2021/09/14 05:23:38;;;;;;;18.00;12.73;;;;;;;15.97;94.55;99748.89;1737248;82;21062;-70
2021/09/14 05:26:05;;;;;;;13.08;11.68;;;;;;;16.03;94.24;99749.67;1730292;82;21171;-70
2021/09/14 05:28:35;;;;;;;13.85;11.10;;;;;;;16.09;94.01;99746.64;1682090;85;21599;-71
2021/09/14 05:31:06;;;;;;;13.75;11.68;;;;;;;16.12;93.41;99748.77;1701091;83;22841;-76
2021/09/14 05:33:34;;;;;;;14.00;10.78;;;;;;;16.17;93.06;99749.81;1702762;83;21554;-71
2021/09/14 05:36:02;;;;;;;13.53;10.48;;;;;;;16.17;92.64;99746.56;1724385;83;21031;-70
2021/09/14 05:38:29;;;;;;;15.38;11.53;;;;;;;16.19;92.17;99752.53;1703643;83;21270;-70
2021/09/14 05:40:58;;;;;;;14.63;11.90;;;;;;;16.21;92.05;99747.61;1724545;83;21071;-71
2021/09/14 05:43:28;;;;;;;13.45;11.05;;;;;;;16.25;91.93;99751.94;1703072;83;21152;-69
2021/09/14 05:45:55;;;;;;;14.05;10.82;;;;;;;16.34;91.84;99755.66;1724413;83;21532;-72
2021/09/14 05:48:24;;;;;;;18.10;12.13;;;;;;;16.39;91.32;99753.70;1708576;83;21098;-70
2021/09/14 05:50:52;;;;;;;14.80;12.28;;;;;;;16.48;91.15;99756.59;1707260;83;21532;-71
2021/09/14 05:53:19;;;;;;;12.37;10.45;;;;;;;16.52;90.41;99757.09;1711420;83;21110;-71
2021/09/14 05:55:46;;;;;;;14.33;10.10;;;;;;;16.55;90.08;99757.05;1724763;83;21500;-71
2021/09/14 05:58:15;;;;;;;17.17;11.38;;;;;;;16.57;90.00;99766.55;1703705;83;21063;-69
2021/09/14 06:00:42;;;;;;;14.45;9.25;;;;;;;16.64;89.71;99768.96;1703673;83;21579;-70
2021/09/14 06:03:08;;;;;;;20.27;11.68;;;;;;;16.70;89.16;99761.00;1724650;83;21503;-69
2021/09/14 06:05:37;;;;;;;9.65;8.23;;;;;;;16.75;88.85;99765.02;1724512;83;20948;-73
2021/09/14 06:08:04;;;;;;;13.08;9.35;;;;;;;16.81;88.40;99764.42;1725176;83;21481;-73
2021/09/14 06:10:31;;;;;;;11.85;8.90;;;;;;;16.86;87.88;99758.38;1723604;83;21512;-72
2021/09/14 06:13:02;;;;;;;11.15;10.05;;;;;;;16.90;87.55;99764.04;1707783;83;21679;-73
2021/09/14 06:15:29;;;;;;;14.38;8.70;;;;;;;16.90;87.05;99760.77;1690987;84;21034;-73
2021/09/14 06:17:56;;;;;;;13.13;9.23;;;;;;;16.94;86.47;99756.38;1699723;84;21014;-73
2021/09/14 06:20:23;;;;;;;16.57;9.93;;;;;;;17.00;86.30;99759.84;1671494;85;20968;-72
2021/09/14 06:22:50;;;;;;;14.10;9.00;;;;;;;17.07;86.05;99763.58;1701958;83;21141;-74
2021/09/14 06:25:17;;;;;;;9.60;8.63;;;;;;;17.13;85.87;99761.85;1665913;83;21583;-69
2021/09/14 06:27:43;;;;;;;13.10;10.32;;;;;;;17.18;85.46;99759.07;1648208;85;21065;-69
2021/09/14 06:30:11;;;;;;;15.35;8.98;;;;;;;17.22;85.07;99760.64;1653279;86;20959;-67
2021/09/14 06:32:38;;;;;;;9.78;7.78;;;;;;;17.26;85.00;99758.44;1720940;83;21043;-70
2021/09/14 06:35:07;;;;;;;15.38;10.32;;;;;;;17.33;84.68;99759.42;1684739;84;21134;-69
2021/09/14 06:37:36;;;;;;;11.20;8.43;;;;;;;17.41;84.32;99752.77;1641413;86;21047;-72
2021/09/14 06:40:06;;;;;;;10.08;8.28;;;;;;;17.51;84.07;99755.09;1718878;83;21142;-72
2021/09/14 06:42:32;;;;;;;7.40;6.65;;;;;;;17.56;83.47;99753.66;1700250;83;20963;-69
2021/09/14 06:45:01;;;;;;;8.68;7.78;;;;;;;17.61;82.88;99757.14;1718754;83;21039;-72
2021/09/14 06:47:29;;;;;;;14.80;8.53;;;;;;;17.68;82.20;99751.34;1719451;83;21099;-70
2021/09/14 06:49:55;;;;;;;9.70;8.28;;;;;;;17.71;82.00;99749.39;1704696;83;21000;-70
2021/09/14 06:52:23;;;;;;;11.55;9.13;;;;;;;17.75;81.96;99755.85;1665680;84;21103;-71
2021/09/14 06:54:49;;;;;;;8.15;7.35;;;;;;;17.81;81.93;99756.04;1676433;84;21010;-71
2021/09/14 06:57:19;;;;;;;14.20;8.38;;;;;;;17.91;81.89;99758.60;1655377;86;21095;-69
2021/09/14 06:59:44;;;;;;;17.87;9.50;;;;;;;18.00;81.46;99758.73;1704862;83;21106;-70
2021/09/14 07:02:11;;;;;;;7.83;7.00;;;;;;;18.07;80.97;99762.70;1724925;83;21057;-71
2021/09/14 07:04:37;;;;;;;9.25;7.65;;;;;;;18.16;79.96;99761.47;1724621;83;21091;-69
2021/09/14 07:07:04;;;;;;;8.48;6.90;;;;;;;18.20;78.85;99768.74;1695982;84;21064;-69
2021/09/14 07:09:31;;;;;;;6.65;6.05;;;;;;;18.24;77.83;99769.76;1729475;83;21014;-72
2021/09/14 07:11:57;;;;;;;6.80;4.78;;;;;;;18.26;77.30;99773.55;1685294;84;21047;-70
2021/09/14 07:14:24;;;;;;;5.72;4.90;;;;;;;18.29;76.17;99780.56;1725903;83;21094;-74
2021/09/14 07:16:52;;;;;;;7.12;5.17;;;;;;;18.30;75.24;99780.83;1726022;83;20912;-69
2021/09/14 07:19:18;;;;;;;6.12;4.83;;;;;;;18.35;75.28;99779.12;1696197;84;21504;-73
2021/09/14 07:21:46;;;;;;;6.83;5.70;;;;;;;18.39;75.65;99782.30;1725799;83;20951;-71
2021/09/14 07:24:13;;;;;;;5.97;4.90;;;;;;;18.45;74.71;99787.92;1695795;84;21563;-72
2021/09/14 07:26:39;;;;;;;7.28;4.70;;;;;;;18.51;73.70;99796.82;1701893;83;21056;-76
2021/09/14 07:29:06;;;;;;;5.53;5.00;;;;;;;18.54;72.77;99793.52;1727095;83;22537;-73
2021/09/14 07:31:33;;;;;;;5.10;4.58;;;;;;;18.56;72.67;99787.23;1706189;83;21565;-72
2021/09/14 07:34:01;;;;;;;5.15;4.65;;;;;;;18.60;72.52;99792.33;1706179;83;21608;-74
2021/09/14 07:36:27;;;;;;;4.78;4.25;;;;;;;18.63;72.81;99788.99;1697072;84;21054;-79
2021/09/14 07:38:54;;;;;;;6.72;4.83;;;;;;;18.69;72.96;99783.71;1727619;82;21524;-73
2021/09/14 07:41:20;;;;;;;11.15;3.92;;;;;;;18.75;72.70;99795.33;1727301;83;21146;-72
2021/09/14 07:43:48;;;;;;;5.17;4.67;;;;;;;18.81;71.26;99790.02;1727361;83;20980;-76
2021/09/14 07:46:16;;;;;;;9.20;4.97;;;;;;;18.89;70.02;99792.06;1727521;83;20936;-76
2021/09/14 07:48:44;;;;;;;8.40;4.62;;;;;;;18.97;69.94;99792.70;1719348;81;20980;-75
2021/09/14 07:51:11;;;;;;;4.37;3.98;;;;;;;19.05;69.08;99786.54;1689018;84;21117;-73
2021/09/14 07:53:37;;;;;;;4.10;3.58;;;;;;;19.08;68.23;99792.22;1727469;82;21164;-73
2021/09/14 07:56:04;;;;;;;5.30;3.87;;;;;;;19.11;68.25;99787.51;1727276;83;20925;-75
2021/09/14 07:58:31;;;;;;;4.45;4.03;;;;;;;19.15;68.20;99781.70;1727411;83;21056;-76
2021/09/14 08:00:57;;;;;;;9.95;4.25;;;;;;;19.21;67.59;99785.68;1692713;82;21059;-72
2021/09/14 08:03:24;;;;;;;5.55;4.10;;;;;;;19.27;67.44;99782.56;1698499;84;21079;-72
2021/09/14 08:05:51;;;;;;;7.12;5.03;;;;;;;19.35;67.46;99791.93;1698367;84;21074;-75
2021/09/14 08:08:18;;;;;;;5.47;4.35;;;;;;;19.40;67.41;99791.82;1719866;83;21101;-77
2021/09/14 08:10:46;;;;;;;6.40;3.75;;;;;;;19.43;65.93;99792.56;1704376;83;20978;-77
2021/09/14 08:13:14;;;;;;;7.58;3.83;;;;;;;19.46;65.10;99801.55;1727277;83;20976;-76
2021/09/14 08:15:41;;;;;;;4.17;3.77;;;;;;;19.47;64.42;99812.72;1706924;83;21080;-77
2021/09/14 08:18:07;;;;;;;5.65;3.20;;;;;;;19.46;64.35;99790.64;1727495;83;21958;-75
2021/09/14 08:20:33;;;;;;;3.67;3.20;;;;;;;19.47;64.46;99804.53;1727356;83;21498;-74
2021/09/14 08:23:00;;;;;;;6.12;3.75;;;;;;;19.49;65.08;99792.75;1706538;83;21020;-73
2021/09/14 08:25:27;;;;;;;5.92;3.83;;;;;;;19.53;65.69;99787.73;1706252;83;21073;-76
2021/09/14 08:27:54;;;;;;;4.08;2.77;;;;;;;19.61;65.45;99787.58;1738057;82;21135;-74
2021/09/14 08:30:22;;;;;;;10.23;3.80;;;;;;;19.69;64.21;99790.94;1736882;82;21038;-77
2021/09/14 08:32:51;;;;;;;3.02;2.70;;;;;;;19.77;63.49;99791.56;1688266;83;20969;-74
2021/09/14 08:35:18;;;;;;;3.25;2.95;;;;;;;19.82;62.88;99800.19;1669909;84;21052;-82
2021/09/14 08:37:46;;;;;;;5.83;3.02;;;;;;;19.86;62.66;99801.19;1707377;83;21056;-75
2021/09/14 08:40:13;;;;;;;3.25;2.80;;;;;;;19.86;62.26;99795.17;1716371;82;21070;-77
2021/09/14 08:42:40;;;;;;;4.15;2.58;;;;;;;19.89;62.45;99801.39;1742278;82;21108;-77
2021/09/14 08:45:10;;;;;;;3.47;2.87;;;;;;;19.93;61.81;99793.39;1741799;82;20962;-78
2021/09/14 08:47:37;;;;;;;5.42;2.90;;;;;;;19.98;61.71;99788.62;1707037;83;21540;-76
2021/09/14 08:50:06;;;;;;;4.40;2.37;;;;;;;20.04;62.01;99786.58;1698574;83;21066;-76
2021/09/14 08:52:33;;;;;;;3.15;2.60;;;;;;;20.12;61.03;99798.11;1743485;82;21041;-74
2021/09/14 08:54:59;;;;;;;7.65;3.77;;;;;;;20.19;60.31;99809.39;1713698;83;21022;-74
2021/09/14 08:57:25;;;;;;;4.55;3.30;;;;;;;20.23;60.28;99789.13;1713941;83;21070;-75
2021/09/14 08:59:55;;;;;;;5.17;3.22;;;;;;;20.28;60.64;99790.36;1713510;83;21050;-76
2021/09/14 09:02:21;;;;;;;3.08;2.70;;;;;;;20.30;60.15;99795.78;1683856;85;21637;-73
2021/09/14 09:05:00;;;;;;;2.67;2.40;;;;;;;20.34;58.98;99793.22;1727272;83;21055;-74
2021/09/14 09:07:34;;;;;;;2.87;2.67;;;;;;;20.38;59.00;99787.41;1726767;83;21115;-74
2021/09/14 09:10:14;;;;;;;6.22;2.92;;;;;;;20.43;59.37;99791.38;1712441;83;21006;-71
2021/09/14 09:12:47;;;;;;;5.97;2.90;;;;;;;20.47;58.99;99780.63;1704585;83;21002;-69
2021/09/14 09:15:33;;;;;;;3.90;3.15;;;;;;;20.54;58.86;99789.16;1743015;82;20915;-72
2021/09/14 09:18:05;;;;;;;5.87;2.70;;;;;;;20.76;58.27;99781.74;1709413;83;20997;-69
2021/09/14 09:20:36;;;;;;;2.80;2.22;;;;;;;20.84;57.23;99778.79;1714036;83;21087;-70
2021/09/14 09:23:07;;;;;;;3.93;3.10;;;;;;;20.84;57.23;99778.79;1714533;83;21495;-71
2021/09/14 09:25:35;;;;;;;4.72;2.52;;;;;;;20.95;56.55;99770.56;1738396;82;20987;-71
2021/09/14 09:28:10;;;;;;;3.75;2.70;;;;;;;20.95;56.55;99770.56;1703384;83;21079;-71
2021/09/14 09:30:40;;;;;;;3.35;2.27;;;;;;;20.99;56.18;99772.09;1705980;83;21601;-69
2021/09/14 09:33:08;;;;;;;2.95;2.58;;;;;;;21.03;55.83;99767.59;1706118;83;22679;-70
2021/09/14 09:35:38;;;;;;;19.05;3.47;;;;;;;21.07;54.41;99764.47;1687054;84;21528;-70
2021/09/14 09:38:06;;;;;;;5.92;2.83;;;;;;;21.13;54.73;99759.10;1723974;83;20999;-69
2021/09/14 09:40:39;;;;;;;3.35;2.47;;;;;;;21.22;54.93;99764.87;1719312;83;21082;-70
2021/09/14 09:43:08;;;;;;;3.45;2.65;;;;;;;21.33;55.28;99771.41;1717005;83;21031;-70
2021/09/14 09:45:47;;;;;;;4.03;2.30;;;;;;;21.39;54.22;99788.70;1678429;83;21068;-68
2021/09/14 09:48:15;;;;;;;3.42;2.72;;;;;;;21.38;54.53;99772.63;1663771;86;21578;-70
2021/09/14 09:50:42;;;;;;;4.25;2.87;;;;;;;21.41;54.99;99785.66;1702926;83;21137;-68
2021/09/14 09:53:09;;;;;;;4.33;3.75;;;;;;;21.47;54.78;99785.77;1709528;83;21063;-68
2021/09/14 09:55:36;;;;;;;4.72;3.85;;;;;;;21.46;54.61;99776.74;1696322;83;21042;-69
2021/09/14 09:58:06;;;;;;;4.83;3.10;;;;;;;21.42;54.78;99797.67;1699699;84;22081;-71
2021/09/14 10:00:35;;;;;;;3.55;3.22;;;;;;;21.40;54.72;99782.67;1700016;83;20983;-70
2021/09/14 10:03:06;;;;;;;9.90;2.80;;;;;;;21.40;55.04;99775.84;1719049;83;21093;-69
2021/09/14 10:05:35;;;;;;;7.87;4.35;;;;;;;21.43;55.12;99777.95;1721347;83;21043;-72
2021/09/14 10:08:10;;;;;;;5.15;3.05;;;;;;;21.49;55.05;99788.97;1725797;83;21015;-70
2021/09/14 10:10:40;;;;;;;3.80;3.00;;;;;;;21.47;54.72;99781.66;1689288;84;21059;-74
2021/09/14 10:13:09;;;;;;;3.08;2.75;;;;;;;21.50;54.18;99792.77;1719362;83;21552;-73
2021/09/14 10:15:43;;;;;;;2.90;2.47;;;;;;;21.53;54.20;99793.52;1716593;83;21048;-72
2021/09/14 10:18:13;;;;;;;3.22;2.77;;;;;;;21.53;53.89;99791.34;1718880;83;21497;-75
2021/09/14 10:20:45;;;;;;;3.50;3.05;;;;;;;21.51;54.03;99793.02;1718942;83;21008;-73
2021/09/14 10:23:35;;;;;;;5.45;3.55;;;;;;;21.49;53.87;99787.60;1718840;83;21187;-74
2021/09/14 10:26:11;;;;;;;7.42;3.47;;;;;;;21.52;54.11;99778.21;1654442;86;20978;-74
2021/09/14 10:28:47;;;;;;;3.45;2.75;;;;;;;21.58;54.34;99774.77;1644785;86;21106;-73
2021/09/14 10:31:31;;;;;;;2.70;2.50;;;;;;;21.59;54.36;99784.00;1725681;83;21066;-73
2021/09/14 10:34:03;;;;;;;5.67;3.50;;;;;;;21.56;54.18;99797.53;1725127;83;21031;-74
2021/09/14 10:36:31;;;;;;;4.05;3.33;;;;;;;21.53;54.63;99789.97;1673962;84;21145;-73
2021/09/14 10:39:00;;;;;;;4.92;2.60;;;;;;;21.55;54.63;99787.70;1725808;83;21528;-74
2021/09/14 10:41:40;;;;;;;3.50;3.05;;;;;;;21.57;54.78;99790.38;1725901;83;21094;-71
2021/09/14 10:44:09;;;;;;;3.15;2.92;;;;;;;21.57;54.83;99783.53;1696091;84;21060;-71
2021/09/14 10:46:40;;;;;;;8.33;3.42;;;;;;;21.66;54.59;99793.92;1705223;83;21183;-71
2021/09/14 10:49:15;;;;;;;6.58;3.30;;;;;;;21.72;54.72;99781.70;1726079;83;20948;-71
2021/09/14 10:51:54;;;;;;;5.05;3.52;;;;;;;21.82;54.72;99763.34;1700154;84;21086;-73
2021/09/14 10:54:20;;;;;;;3.27;2.60;;;;;;;21.91;54.61;99770.42;1675525;84;21074;-72
2021/09/14 10:56:52;;;;;;;4.12;2.72;;;;;;;21.96;54.41;99783.17;1667925;86;21051;-72
2021/09/14 10:59:18;;;;;;;6.75;3.58;;;;;;;21.94;53.85;99775.28;1696942;84;21023;-70
2021/09/14 11:01:46;;;;;;;2.87;2.67;;;;;;;21.99;54.18;99770.20;1645616;86;21808;-70
2021/09/14 11:04:15;;;;;;;7.15;4.33;;;;;;;22.07;54.28;99780.33;1675347;84;21159;-70
2021/09/14 11:06:47;;;;;;;3.72;3.40;;;;;;;22.07;53.54;99768.00;1675472;84;21369;-70
2021/09/14 11:09:14;;;;;;;6.20;3.98;;;;;;;22.15;53.74;99772.69;1711657;83;21571;-70
2021/09/14 11:11:41;;;;;;;6.37;3.52;;;;;;;22.23;52.76;99773.80;1725595;83;22198;-70
2021/09/14 11:14:08;;;;;;;3.92;3.52;;;;;;;22.22;52.81;99768.06;1680788;83;21770;-71
2021/09/14 11:16:36;;;;;;;3.47;3.00;;;;;;;22.34;52.84;99769.03;1705179;83;21063;-72
2021/09/14 11:19:04;;;;;;;8.73;2.02;;;;;;;22.55;51.74;99787.75;1726049;83;20979;-73
2021/09/14 11:21:31;;;;;;;4.08;2.70;;;;;;;22.65;49.60;99777.55;1696052;84;21023;-72
2021/09/14 11:23:58;;;;;;;2.52;2.30;;;;;;;22.64;49.95;99776.74;1695950;84;21513;-73
2021/09/14 11:26:24;;;;;;;3.12;2.85;;;;;;;22.61;49.75;99769.19;1696220;84;21751;-71
2021/09/14 11:28:58;;;;;;;5.37;2.55;;;;;;;22.64;49.86;99772.63;1707461;83;21092;-71
2021/09/14 11:31:31;;;;;;;3.58;2.90;;;;;;;22.69;50.04;99775.20;1713181;83;21014;-72
2021/09/14 11:33:58;;;;;;;3.55;3.02;;;;;;;22.66;49.75;99766.27;1687497;83;21139;-75
2021/09/14 11:36:26;;;;;;;10.85;2.95;;;;;;;22.66;50.10;99773.13;1713940;83;21416;-70
2021/09/14 11:39:05;;;;;;;4.30;2.80;;;;;;;22.65;50.08;99785.78;1713944;83;21153;-70
2021/09/14 11:41:37;;;;;;;2.98;2.17;;;;;;;22.56;50.04;99767.99;1713795;83;21093;-71
2021/09/14 11:44:06;;;;;;;3.03;2.73;;;;;;;22.40;49.43;99772.37;1714363;83;21074;-74
2021/09/14 11:46:32;;;;;;;4.12;2.70;;;;;;;22.23;49.25;99772.42;1713759;83;21116;-71
2021/09/14 11:49:01;;;;;;;2.50;2.30;;;;;;;22.09;49.42;99774.78;1713787;83;21038;-72
2021/09/14 11:51:41;;;;;;;4.67;2.50;;;;;;;21.98;50.06;99773.49;1713583;83;21219;-71
2021/09/14 11:54:13;;;;;;;3.77;2.90;;;;;;;21.87;50.62;99769.43;1713938;83;20911;-70
2021/09/14 11:56:39;;;;;;;2.92;2.72;;;;;;;21.80;51.03;99771.86;1713723;83;21590;-70
2021/09/14 11:59:16;;;;;;;2.75;2.30;;;;;;;21.77;51.51;99770.34;1713831;83;21131;-70
2021/09/14 12:01:44;;;;;;;3.00;2.50;;;;;;;21.78;51.88;99781.52;1713906;83;21586;-72
2021/09/14 12:04:17;;;;;;;4.33;2.75;;;;;;;21.82;51.85;99767.45;1713692;83;21200;-72
2021/09/14 12:06:53;;;;;;;4.28;3.02;;;;;;;21.92;51.52;99766.53;1713622;83;20943;-71
2021/09/14 12:09:22;;;;;;;10.53;3.60;;;;;;;21.96;51.56;99767.55;1713888;83;21112;-72
2021/09/14 12:12:05;;;;;;;2.50;2.12;;;;;;;21.98;51.86;99764.47;1720075;83;21019;-71
2021/09/14 12:14:32;;;;;;;4.53;2.77;;;;;;;22.00;51.83;99755.38;1728799;83;21606;-71
2021/09/14 12:17:03;;;;;;;4.55;2.60;;;;;;;22.02;51.83;99760.76;1728646;83;21039;-71
2021/09/14 12:19:34;;;;;;;8.35;2.98;;;;;;;22.04;51.87;99763.19;1728576;83;20999;-71
2021/09/14 12:22:04;;;;;;;4.12;2.20;;;;;;;22.02;51.76;99770.34;1728682;83;22134;-71
2021/09/14 12:24:32;;;;;;;2.30;2.10;;;;;;;22.02;51.47;99757.21;1713798;83;21014;-72